Time;durP1;ratioP1;P1;durP2;ratioP2;P2;SDS_P1;SDS_P2;PMS_P1;PMS_P2;Temp;Humidity;BMP_temperature;BMP_pressure;BME280_temperature;BME280_humidity;BME280_pressure;Samples;Min_cycle;Max_cycle;Signal;HPM_P1;HPM_P2
2023/04/05 00:01:59;;;;;;;5.35;3.90;;;3.50;80.50;;;;;;5060177;28;20760;-71
2023/04/05 00:04:50;;;;;;;4.05;3.65;;;3.50;81.40;;;;;;5077349;28;20239;-71
2023/04/05 00:07:36;;;;;;;5.78;3.60;;;3.30;79.80;;;;;;5068977;28;20224;-72
2023/04/05 00:10:22;;;;;;;7.97;4.82;;;3.20;81.30;;;;;;5076359;28;20199;-71
2023/04/05 00:13:07;;;;;;;5.15;3.92;;;3.20;83.60;;;;;;5079247;28;20577;-71
2023/04/05 00:15:57;;;;;;;6.70;4.18;;;3.00;82.30;;;;;;5079496;28;20248;-71
2023/04/05 00:18:44;;;;;;;10.43;4.10;;;3.10;82.90;;;;;;5072240;28;20226;-71
2023/04/05 00:21:32;;;;;;;6.45;4.43;;;3.00;82.80;;;;;;5070483;28;20222;-71
2023/04/05 00:24:17;;;;;;;6.50;3.15;;;3.00;82.20;;;;;;5083363;28;20248;-71
2023/04/05 00:27:03;;;;;;;5.80;4.05;;;3.00;81.40;;;;;;5080574;28;20197;-71
2023/04/05 00:29:48;;;;;;;5.90;3.30;;;3.10;82.30;;;;;;5066332;28;20330;-71
2023/04/05 00:32:36;;;;;;;10.90;3.90;;;3.10;82.70;;;;;;5076127;28;20299;-71
2023/04/05 00:35:21;;;;;;;4.53;3.83;;;3.10;81.80;;;;;;5061851;28;20234;-71
2023/04/05 00:38:07;;;;;;;7.80;3.70;;;3.10;81.70;;;;;;5074372;28;20225;-71
2023/04/05 00:40:53;;;;;;;5.00;3.63;;;3.10;82.20;;;;;;5064156;28;20214;-71
2023/04/05 00:43:38;;;;;;;3.50;3.20;;;3.10;82.30;;;;;;5067462;28;20589;-71
2023/04/05 00:46:24;;;;;;;4.60;3.40;;;2.90;82.80;;;;;;5068804;28;20757;-71
2023/04/05 00:49:11;;;;;;;6.80;3.80;;;2.80;81.70;;;;;;5063769;28;20398;-71
2023/04/05 00:51:57;;;;;;;7.00;3.88;;;2.70;82.60;;;;;;5062785;28;20238;-70
2023/04/05 00:54:43;;;;;;;6.13;3.25;;;2.70;85.60;;;;;;5066002;28;20225;-70
2023/04/05 00:57:30;;;;;;;6.32;3.40;;;2.60;84.60;;;;;;5068033;28;20203;-71
2023/04/05 01:00:15;;;;;;;5.30;3.70;;;2.70;85.00;;;;;;5064643;28;20332;-71
2023/04/05 01:03:04;;;;;;;6.30;4.30;;;2.50;86.10;;;;;;5065801;28;20217;-71
2023/04/05 01:05:58;;;;;;;5.10;3.83;;;2.40;87.30;;;;;;5066824;28;20207;-71
2023/04/05 01:08:50;;;;;;;7.40;3.50;;;2.20;88.30;;;;;;5065319;28;20249;-72
2023/04/05 01:11:37;;;;;;;11.75;3.88;;;2.30;90.10;;;;;;5069158;28;20202;-71
2023/04/05 01:14:23;;;;;;;5.35;3.35;;;2.20;91.10;;;;;;5063694;28;20219;-71
2023/04/05 01:17:09;;;;;;;5.95;3.75;;;2.40;91.20;;;;;;5070171;28;20202;-71
2023/04/05 01:19:58;;;;;;;6.68;4.18;;;2.50;90.90;;;;;;5060218;28;20334;-71
2023/04/05 01:23:13;;;;;;;5.53;4.22;;;2.60;90.20;;;;;;5064335;28;20723;-71
2023/04/05 01:26:38;;;;;;;5.10;3.33;;;2.60;90.00;;;;;;5057307;28;20199;-72
2023/04/05 01:29:55;;;;;;;9.85;4.03;;;2.40;90.20;;;;;;5062921;28;20250;-71
2023/04/05 01:32:52;;;;;;;5.60;4.53;;;2.50;90.60;;;;;;5063553;28;20260;-71
2023/04/05 01:35:43;;;;;;;7.20;4.00;;;2.60;90.40;;;;;;5063874;28;20368;-71
2023/04/05 01:38:31;;;;;;;6.05;4.07;;;2.60;90.70;;;;;;5070706;28;20238;-71
2023/04/05 01:41:17;;;;;;;5.10;3.88;;;2.50;90.60;;;;;;5063740;28;20231;-71
2023/04/05 01:44:03;;;;;;;5.35;3.92;;;2.50;89.90;;;;;;5068436;28;20223;-71
2023/04/05 01:46:50;;;;;;;6.70;4.13;;;2.20;90.20;;;;;;5069206;28;20211;-70
2023/04/05 01:49:36;;;;;;;4.55;2.80;;;2.20;90.30;;;;;;5064697;28;20201;-71
2023/04/05 01:52:21;;;;;;;6.63;5.13;;;2.20;90.60;;;;;;5064611;28;20207;-71
2023/04/05 01:55:08;;;;;;;5.00;3.13;;;2.30;90.60;;;;;;5063324;28;20222;-71
2023/04/05 01:57:55;;;;;;;4.55;3.10;;;2.30;90.20;;;;;;5062540;28;20231;-71
2023/04/05 02:00:40;;;;;;;6.88;4.05;;;2.30;90.70;;;;;;5070193;28;20275;-70
2023/04/05 02:03:28;;;;;;;8.88;3.63;;;2.30;89.90;;;;;;5066309;28;20249;-71
2023/04/05 02:06:13;;;;;;;5.15;3.60;;;2.30;90.20;;;;;;5082337;28;20286;-71
2023/04/05 02:08:59;;;;;;;6.32;3.72;;;2.30;88.60;;;;;;5064039;28;20203;-70
2023/04/05 02:11:45;;;;;;;8.13;4.00;;;2.30;89.10;;;;;;5070868;28;20566;-70
2023/04/05 02:14:31;;;;;;;7.03;3.85;;;2.20;88.30;;;;;;5069834;28;21248;-72
2023/04/05 02:17:17;;;;;;;6.07;4.32;;;2.20;89.80;;;;;;5059030;28;20248;-71
2023/04/05 02:20:06;;;;;;;4.03;3.60;;;2.40;89.10;;;;;;5059032;28;20593;-71
2023/04/05 02:22:52;;;;;;;5.28;3.30;;;2.40;88.70;;;;;;5063098;28;21621;-71
2023/04/05 02:25:38;;;;;;;5.57;3.55;;;2.40;88.80;;;;;;5070943;28;20229;-71
2023/04/05 02:28:23;;;;;;;6.60;3.58;;;2.20;88.30;;;;;;5061963;28;20546;-70
2023/04/05 02:31:10;;;;;;;8.18;4.40;;;2.20;89.40;;;;;;5066405;28;20257;-71
2023/04/05 02:33:59;;;;;;;9.40;4.82;;;1.90;89.90;;;;;;5060011;28;20379;-74
2023/04/05 02:36:46;;;;;;;5.53;4.03;;;2.00;90.00;;;;;;5064367;28;20203;-71
2023/04/05 02:39:32;;;;;;;5.65;4.60;;;2.00;90.40;;;;;;5064705;28;20277;-70
2023/04/05 02:42:17;;;;;;;6.43;3.85;;;1.90;88.20;;;;;;5063956;28;20215;-70
2023/04/05 02:45:03;;;;;;;5.65;4.20;;;2.00;89.60;;;;;;5062423;28;20222;-70
2023/04/05 02:47:49;;;;;;;6.93;3.58;;;2.10;89.90;;;;;;5067043;28;20420;-71
2023/04/05 02:50:35;;;;;;;5.00;3.60;;;2.00;90.10;;;;;;5071905;28;20669;-70
2023/04/05 02:53:22;;;;;;;4.30;3.10;;;2.00;90.20;;;;;;5062239;28;20203;-70
2023/04/05 02:56:08;;;;;;;5.05;4.20;;;1.90;89.60;;;;;;5065219;28;20206;-70
2023/04/05 02:58:53;;;;;;;8.02;5.72;;;1.90;90.70;;;;;;5058786;28;20260;-71
2023/04/05 03:01:43;;;;;;;5.63;3.70;;;1.70;90.20;;;;;;5066044;28;20626;-69
2023/04/05 03:04:28;;;;;;;4.75;3.72;;;1.60;90.90;;;;;;5063943;28;20799;-70
2023/04/05 03:07:17;;;;;;;7.53;4.32;;;1.50;91.50;;;;;;5068436;28;20214;-72
2023/04/05 03:10:05;;;;;;;6.68;5.40;;;1.50;93.00;;;;;;5062304;28;20569;-69
2023/04/05 03:12:51;;;;;;;7.72;4.30;;;1.60;92.80;;;;;;5069670;28;20253;-70
2023/04/05 03:15:37;;;;;;;5.50;4.18;;;1.70;92.30;;;;;;5074098;28;20295;-72
2023/04/05 03:18:24;;;;;;;4.55;3.92;;;1.90;91.90;;;;;;5062650;28;20222;-70
2023/04/05 03:21:10;;;;;;;6.35;3.85;;;1.90;91.30;;;;;;5067675;28;20262;-71
2023/04/05 03:23:56;;;;;;;4.38;3.92;;;1.90;91.40;;;;;;5059835;28;20661;-70
2023/04/05 03:26:45;;;;;;;6.72;4.20;;;1.80;90.90;;;;;;5068533;28;20562;-70
2023/04/05 03:29:30;;;;;;;6.70;4.85;;;1.70;91.50;;;;;;5058436;28;20206;-71
2023/04/05 03:32:16;;;;;;;8.10;4.38;;;1.50;92.30;;;;;;5062720;28;20683;-70
2023/04/05 03:35:02;;;;;;;7.65;4.60;;;1.40;92.20;;;;;;5068466;28;20320;-70
2023/04/05 03:37:47;;;;;;;7.13;4.20;;;1.50;92.70;;;;;;5064794;28;20225;-71
2023/04/05 03:40:33;;;;;;;5.95;4.88;;;1.40;93.60;;;;;;5067035;28;20215;-69
2023/04/05 03:43:20;;;;;;;6.40;4.25;;;1.40;93.80;;;;;;5065369;28;20684;-71
2023/04/05 03:46:06;;;;;;;5.72;4.03;;;1.30;93.80;;;;;;5068188;28;20691;-70
2023/04/05 03:48:51;;;;;;;9.75;6.88;;;1.40;93.70;;;;;;5065100;28;20589;-70
2023/04/05 03:51:37;;;;;;;6.60;4.25;;;1.50;93.90;;;;;;5062843;28;20202;-71
2023/04/05 03:54:23;;;;;;;8.73;4.75;;;1.60;93.60;;;;;;5067336;28;20230;-72
2023/04/05 03:57:09;;;;;;;6.75;4.80;;;1.70;93.10;;;;;;5069838;28;20201;-70
2023/04/05 03:59:56;;;;;;;5.25;4.10;;;1.60;92.70;;;;;;5067437;28;20217;-70
2023/04/05 04:02:46;;;;;;;6.80;5.00;;;1.50;92.20;;;;;;5061978;28;20203;-70
2023/04/05 04:05:37;;;;;;;6.95;4.97;;;1.10;93.40;;;;;;5076510;28;20602;-70
2023/04/05 04:08:23;;;;;;;7.05;5.22;;;1.10;94.20;;;;;;5065867;28;20225;-70
2023/04/05 04:11:08;;;;;;;5.15;4.65;;;1.00;94.20;;;;;;5061535;28;20570;-70
2023/04/05 04:13:54;;;;;;;6.15;4.63;;;1.00;94.50;;;;;;5066660;28;20360;-71
2023/04/05 04:16:41;;;;;;;8.15;4.93;;;0.90;97.00;;;;;;5058398;28;20296;-70
2023/04/05 04:19:26;;;;;;;7.32;5.20;;;0.80;97.90;;;;;;5069976;28;20226;-71
2023/04/05 04:22:12;;;;;;;5.15;4.35;;;0.90;98.60;;;;;;5071416;28;20725;-71
2023/04/05 04:25:01;;;;;;;7.85;4.97;;;1.00;98.60;;;;;;5064949;28;20227;-70
2023/04/05 04:27:47;;;;;;;7.80;4.60;;;1.20;97.60;;;;;;5062245;28;20680;-71
2023/04/05 04:30:33;;;;;;;10.73;5.07;;;1.30;97.10;;;;;;5071825;28;20226;-71
2023/04/05 04:33:20;;;;;;;6.10;4.70;;;1.20;97.30;;;;;;5067768;28;20206;-70
2023/04/05 04:36:12;;;;;;;9.18;5.88;;;1.10;96.30;;;;;;5069400;28;20197;-71
2023/04/05 04:38:58;;;;;;;5.97;4.93;;;0.90;97.00;;;;;;5069958;28;20210;-70
2023/04/05 04:41:45;;;;;;;6.70;5.28;;;0.90;97.90;;;;;;5071607;28;20205;-71
2023/04/05 04:44:31;;;;;;;9.18;6.80;;;1.00;97.60;;;;;;5072019;28;20231;-70
2023/04/05 04:47:20;;;;;;;6.97;5.13;;;0.90;97.90;;;;;;5063730;28;20194;-70
2023/04/05 04:50:09;;;;;;;10.20;6.03;;;0.70;97.90;;;;;;5067823;28;20218;-70
2023/04/05 04:52:55;;;;;;;9.98;5.82;;;0.60;99.00;;;;;;5060386;28;20202;-70
2023/04/05 04:55:41;;;;;;;7.05;4.70;;;0.80;99.10;;;;;;5070784;28;20303;-70
2023/04/05 04:58:26;;;;;;;7.40;5.00;;;0.80;98.60;;;;;;5064215;28;20270;-70
2023/04/05 05:01:12;;;;;;;5.40;4.40;;;0.80;99.10;;;;;;5066846;28;20573;-71
2023/04/05 05:03:58;;;;;;;8.57;6.00;;;0.80;98.60;;;;;;5072594;28;20312;-72
2023/04/05 05:06:45;;;;;;;7.03;5.40;;;0.90;99.00;;;;;;5063727;28;20197;-71
2023/04/05 05:09:31;;;;;;;8.45;5.55;;;0.90;98.00;;;;;;5068524;28;20578;-72
2023/04/05 05:12:16;;;;;;;7.30;5.45;;;0.90;98.70;;;;;;5076019;28;20357;-70
2023/04/05 05:15:02;;;;;;;7.03;6.15;;;0.90;98.40;;;;;;5066415;28;20219;-72
2023/04/05 05:17:51;;;;;;;7.05;5.15;;;0.90;97.90;;;;;;5063240;28;20205;-70
2023/04/05 05:20:37;;;;;;;7.57;6.25;;;0.90;98.40;;;;;;5065660;28;20237;-71
2023/04/05 05:23:24;;;;;;;7.95;5.70;;;0.90;98.80;;;;;;5063981;28;20210;-71
2023/04/05 05:26:11;;;;;;;9.93;5.18;;;1.00;98.10;;;;;;5060832;28;20277;-72
2023/04/05 05:29:01;;;;;;;8.63;5.65;;;0.90;97.60;;;;;;5065612;28;20201;-70
2023/04/05 05:31:47;;;;;;;9.52;4.95;;;1.00;97.50;;;;;;5067905;28;20210;-70
2023/04/05 05:34:33;;;;;;;10.73;7.25;;;1.10;98.40;;;;;;5066599;28;20891;-70
2023/04/05 05:37:18;;;;;;;10.30;5.50;;;1.30;98.60;;;;;;5067792;28;20207;-71
2023/04/05 05:40:07;;;;;;;9.23;5.25;;;1.50;98.50;;;;;;5070979;28;20214;-70
2023/04/05 05:42:52;;;;;;;7.55;4.78;;;1.50;98.10;;;;;;5072645;28;20302;-70
2023/04/05 05:45:38;;;;;;;6.95;5.00;;;1.60;97.40;;;;;;5065055;28;20246;-70
2023/04/05 05:48:24;;;;;;;9.02;6.65;;;1.60;96.90;;;;;;5060862;28;20739;-70
2023/04/05 05:51:09;;;;;;;8.85;5.80;;;1.70;97.00;;;;;;5063948;28;20198;-70
2023/04/05 05:53:55;;;;;;;10.60;6.43;;;1.70;96.70;;;;;;5067233;28;20294;-72
2023/04/05 05:56:42;;;;;;;14.35;6.55;;;1.70;96.60;;;;;;5065789;28;20664;-70
2023/04/05 05:59:28;;;;;;;10.00;5.60;;;1.70;97.00;;;;;;5067570;28;20715;-71
2023/04/05 06:02:14;;;;;;;8.02;5.53;;;1.90;97.40;;;;;;5076801;28;20217;-71
2023/04/05 06:05:00;;;;;;;7.43;5.13;;;1.90;97.60;;;;;;5079353;28;20357;-70
2023/04/05 06:07:46;;;;;;;6.05;5.20;;;2.00;97.60;;;;;;5073701;28;20248;-70
2023/04/05 06:10:32;;;;;;;7.00;5.43;;;2.10;97.50;;;;;;5076109;28;20305;-71
2023/04/05 06:13:19;;;;;;;9.43;5.95;;;2.10;97.20;;;;;;5079977;28;20303;-70
2023/04/05 06:16:05;;;;;;;8.30;5.72;;;2.20;96.70;;;;;;5080943;28;20683;-70
2023/04/05 06:18:51;;;;;;;8.70;5.68;;;2.20;96.00;;;;;;5087665;28;20332;-70
2023/04/05 06:21:36;;;;;;;17.23;5.95;;;2.20;96.60;;;;;;5073798;28;20680;-70
2023/04/05 06:24:22;;;;;;;6.60;5.70;;;2.30;96.60;;;;;;5080569;28;20627;-73
2023/04/05 06:27:08;;;;;;;6.75;5.68;;;2.40;95.90;;;;;;5076175;28;20564;-70
2023/04/05 06:29:55;;;;;;;7.93;5.85;;;2.40;96.30;;;;;;5066533;28;20572;-70
2023/04/05 06:32:41;;;;;;;10.88;6.53;;;2.50;96.60;;;;;;5068671;28;20669;-70
2023/04/05 06:35:27;;;;;;;9.70;6.35;;;2.70;96.40;;;;;;5068078;28;20237;-70
2023/04/05 06:38:12;;;;;;;13.82;8.18;;;2.90;96.30;;;;;;5068400;28;20205;-70
2023/04/05 06:40:58;;;;;;;11.57;7.32;;;2.90;95.40;;;;;;5063406;28;20225;-70
2023/04/05 06:43:44;;;;;;;10.00;7.07;;;3.10;94.40;;;;;;5068901;28;20301;-71
2023/04/05 06:46:31;;;;;;;10.68;7.03;;;3.20;94.20;;;;;;5060017;28;20564;-71
2023/04/05 06:49:16;;;;;;;13.02;7.85;;;3.20;94.40;;;;;;5063104;28;20258;-70
2023/04/05 06:52:04;;;;;;;11.32;6.68;;;3.30;94.00;;;;;;5064807;28;20206;-72
2023/04/05 06:54:50;;;;;;;11.65;7.35;;;3.30;93.40;;;;;;5063981;28;20385;-71
2023/04/05 06:57:36;;;;;;;9.65;7.07;;;3.40;94.50;;;;;;5060964;28;20281;-70
2023/04/05 07:00:22;;;;;;;9.52;6.63;;;3.50;94.20;;;;;;5063781;28;20228;-71
2023/04/05 07:03:09;;;;;;;13.40;8.38;;;3.60;92.30;;;;;;5066218;28;20199;-70
2023/04/05 07:05:57;;;;;;;7.97;7.15;;;3.70;92.90;;;;;;5060100;28;20200;-70
2023/04/05 07:08:43;;;;;;;12.77;7.10;;;3.70;91.30;;;;;;5073345;28;20326;-70
2023/04/05 07:11:31;;;;;;;12.00;7.43;;;3.70;91.30;;;;;;5079844;28;20198;-70
2023/04/05 07:14:17;;;;;;;8.75;6.60;;;3.80;91.60;;;;;;5057700;28;20230;-70
2023/04/05 07:17:04;;;;;;;8.45;6.38;;;3.90;90.20;;;;;;5067691;28;20276;-70
2023/04/05 07:19:52;;;;;;;9.98;7.40;;;4.00;90.70;;;;;;5068289;28;20348;-72
2023/04/05 07:22:37;;;;;;;11.23;6.40;;;4.20;90.20;;;;;;5073944;28;20250;-70
2023/04/05 07:25:23;;;;;;;15.25;8.23;;;4.40;90.00;;;;;;5068127;28;20267;-71
2023/04/05 07:28:09;;;;;;;9.55;7.47;;;4.50;87.60;;;;;;5066233;28;20207;-71
2023/04/05 07:30:55;;;;;;;7.95;5.55;;;4.70;80.00;;;;;;5069696;28;20688;-70
2023/04/05 07:33:40;;;;;;;10.70;6.70;;;4.80;81.60;;;;;;5066933;28;20219;-74
2023/04/05 07:36:29;;;;;;;9.57;6.43;;;4.90;82.30;;;;;;5063738;28;20220;-71
2023/04/05 07:39:15;;;;;;;8.73;6.00;;;5.00;76.40;;;;;;5066610;28;20689;-70
2023/04/05 07:42:00;;;;;;;9.68;5.85;;;5.20;74.60;;;;;;5071888;28;20203;-72
2023/04/05 07:44:46;;;;;;;8.48;6.00;;;5.30;74.90;;;;;;5067819;28;20234;-71
2023/04/05 07:47:33;;;;;;;8.43;5.60;;;5.50;71.70;;;;;;5064040;28;20712;-71
2023/04/05 07:50:19;;;;;;;10.10;5.80;;;5.60;67.90;;;;;;5064499;28;20223;-70
2023/04/05 07:53:07;;;;;;;10.57;6.03;;;5.70;64.90;;;;;;5067065;28;20921;-72
2023/04/05 07:55:52;;;;;;;12.55;6.15;;;5.80;65.90;;;;;;5061864;28;20496;-70
2023/04/05 07:58:39;;;;;;;8.40;5.78;;;5.90;66.70;;;;;;5069206;28;20208;-71
2023/04/05 08:01:26;;;;;;;7.90;5.30;;;6.10;65.30;;;;;;5068966;28;20728;-71
2023/04/05 08:04:12;;;;;;;9.73;5.70;;;6.20;66.60;;;;;;5063902;28;20468;-70
2023/04/05 08:06:58;;;;;;;8.95;5.03;;;6.40;65.10;;;;;;5081174;28;20800;-70
2023/04/05 08:09:45;;;;;;;8.75;5.10;;;6.50;62.60;;;;;;5078498;28;20199;-71
2023/04/05 08:12:31;;;;;;;7.33;5.70;;;6.60;56.60;;;;;;5068658;28;20392;-71
2023/04/05 08:15:17;;;;;;;9.60;5.13;;;6.70;48.10;;;;;;5070507;28;20724;-70
2023/04/05 08:18:03;;;;;;;7.60;4.97;;;6.70;51.00;;;;;;5070355;28;20442;-70
2023/04/05 08:20:51;;;;;;;10.23;5.23;;;6.90;50.50;;;;;;5066451;28;20521;-70
2023/04/05 08:23:37;;;;;;;6.70;4.47;;;6.90;48.00;;;;;;5074329;28;20521;-70
2023/04/05 08:26:24;;;;;;;8.03;4.10;;;7.10;48.30;;;;;;5072764;28;20429;-70
2023/04/05 08:29:10;;;;;;;10.00;4.90;;;7.20;44.30;;;;;;5083206;28;20942;-70
2023/04/05 08:31:57;;;;;;;6.00;3.47;;;7.30;42.80;;;;;;5067374;28;20424;-71
2023/04/05 08:34:43;;;;;;;13.00;4.67;;;7.50;31.80;;;;;;5088091;22;20493;-74
2023/04/05 08:37:28;;;;;;;7.57;4.27;;;7.50;33.30;;;;;;5042539;28;20431;-76
2023/04/05 08:40:14;;;;;;;5.33;4.27;;;7.60;36.60;;;;;;5038652;28;20476;-75
2023/04/05 08:43:09;;;;;;;6.40;4.87;;;7.70;35.20;;;;;;5047564;28;20881;-74
2023/04/05 08:45:59;;;;;;;9.13;4.60;;;7.80;38.60;;;;;;5040095;28;20429;-74
2023/04/05 08:48:45;;;;;;;9.00;4.07;;;8.00;35.30;;;;;;5036887;28;20488;-73
2023/04/05 08:51:32;;;;;;;6.87;4.50;;;8.10;34.10;;;;;;5042387;28;20460;-76
2023/04/05 08:54:17;;;;;;;7.57;4.30;;;8.10;31.20;;;;;;5040504;28;20510;-74
2023/04/05 08:57:04;;;;;;;5.83;4.20;;;8.20;30.00;;;;;;5042582;28;20450;-74
2023/04/05 08:59:53;;;;;;;12.27;4.23;;;8.30;30.10;;;;;;5040827;28;20430;-75
2023/04/05 09:02:39;;;;;;;6.93;4.47;;;8.40;30.90;;;;;;5042862;28;20501;-74
2023/04/05 09:05:26;;;;;;;6.67;4.33;;;8.50;30.50;;;;;;5041773;28;20447;-73
2023/04/05 09:08:13;;;;;;;7.33;4.30;;;8.60;30.50;;;;;;5040128;28;20425;-74
2023/04/05 09:10:59;;;;;;;7.40;4.10;;;8.70;32.30;;;;;;5043238;28;20565;-72
2023/04/05 09:13:45;;;;;;;7.70;4.13;;;8.90;28.60;;;;;;5048247;28;20866;-73
2023/04/05 09:16:33;;;;;;;7.43;4.73;;;9.00;25.80;;;;;;5041448;28;20781;-74
2023/04/05 09:19:19;;;;;;;7.03;4.53;;;8.90;24.20;;;;;;5045571;28;20433;-75
2023/04/05 09:22:05;;;;;;;5.30;4.20;;;8.80;22.60;;;;;;5054644;28;20986;-74
2023/04/05 09:24:52;;;;;;;6.33;3.90;;;8.80;23.40;;;;;;5049798;28;20430;-74
2023/04/05 09:27:54;;;;;;;7.57;5.13;;;8.90;24.10;;;;;;5043867;28;20916;-74
2023/04/05 09:30:46;;;;;;;8.63;4.60;;;8.80;22.50;;;;;;5040461;28;21002;-74
2023/04/05 09:33:34;;;;;;;7.07;4.30;;;8.80;23.00;;;;;;5048441;28;20453;-73
2023/04/05 09:36:20;;;;;;;11.03;4.60;;;8.70;24.40;;;;;;5044686;28;20478;-73
2023/04/05 09:39:07;;;;;;;6.70;4.40;;;8.80;25.00;;;;;;5041964;28;20441;-74
2023/04/05 09:42:05;;;;;;;6.10;4.30;;;9.10;24.90;;;;;;5046497;28;20590;-78
2023/04/05 09:44:56;;;;;;;8.47;4.07;;;9.20;21.00;;;;;;5037397;28;20819;-74
2023/04/05 09:47:44;;;;;;;6.80;4.60;;;9.30;21.60;;;;;;5044211;28;20528;-74
2023/04/05 09:50:31;;;;;;;6.30;4.30;;;9.40;23.80;;;;;;5045500;28;20515;-74
2023/04/05 09:53:18;;;;;;;8.53;4.23;;;9.50;22.00;;;;;;5037286;28;20811;-73
2023/04/05 09:56:10;;;;;;;6.87;3.70;;;9.50;21.40;;;;;;5048130;28;20431;-74
2023/04/05 09:59:00;;;;;;;5.97;4.40;;;9.60;22.20;;;;;;5043976;28;20400;-74
2023/04/05 10:01:50;;;;;;;5.40;3.90;;;9.70;21.70;;;;;;5038135;28;20516;-75
2023/04/05 10:04:40;;;;;;;6.00;3.93;;;9.80;20.70;;;;;;5032028;28;20985;-74
2023/04/05 10:07:28;;;;;;;7.87;4.33;;;9.90;23.10;;;;;;5031761;28;20502;-73
2023/04/05 10:10:15;;;;;;;5.30;3.97;;;10.00;20.10;;;;;;5041819;28;20843;-73
2023/04/05 10:13:01;;;;;;;5.30;3.37;;;9.70;18.90;;;;;;5042213;28;20465;-75
2023/04/05 10:15:50;;;;;;;5.33;3.27;;;9.80;18.90;;;;;;5038477;28;20464;-73
2023/04/05 10:18:45;;;;;;;5.73;4.53;;;9.90;21.20;;;;;;5044165;28;20445;-76
2023/04/05 10:21:40;;;;;;;9.00;3.73;;;10.10;21.40;;;;;;5042391;28;20470;-74
2023/04/05 10:24:35;;;;;;;5.23;3.73;;;10.40;21.40;;;;;;5052653;28;20824;-74
2023/04/05 10:27:28;;;;;;;8.80;4.97;;;10.60;20.70;;;;;;5045464;28;20952;-73
2023/04/05 10:30:15;;;;;;;7.10;4.13;;;10.70;18.10;;;;;;5057677;28;20432;-74
2023/04/05 10:33:10;;;;;;;4.90;4.03;;;10.70;18.80;;;;;;5052767;28;20552;-74
2023/04/05 10:36:03;;;;;;;5.43;3.63;;;10.80;20.80;;;;;;5044244;28;20533;-73
2023/04/05 10:39:04;;;;;;;7.47;4.60;;;10.90;20.90;;;;;;5037914;28;20991;-74
2023/04/05 10:41:55;;;;;;;10.43;4.70;;;10.90;17.60;;;;;;5043095;28;20484;-74
2023/04/05 10:44:45;;;;;;;6.83;4.13;;;11.00;19.00;;;;;;5037553;28;20802;-74
2023/04/05 10:47:36;;;;;;;7.63;4.10;;;10.90;19.80;;;;;;5052828;28;20441;-73
2023/04/05 10:50:24;;;;;;;7.27;4.17;;;10.90;19.00;;;;;;5040230;28;20452;-75
2023/04/05 10:53:11;;;;;;;5.83;4.03;;;11.00;19.70;;;;;;5045048;28;20838;-74
2023/04/05 10:55:58;;;;;;;5.10;4.40;;;11.20;19.20;;;;;;5037473;28;20466;-74
2023/04/05 10:58:47;;;;;;;13.43;4.40;;;11.20;16.90;;;;;;5045295;28;20444;-72
2023/04/05 11:01:33;;;;;;;8.70;3.97;;;11.20;15.90;;;;;;5038437;28;20482;-76
2023/04/05 11:04:19;;;;;;;11.57;5.00;;;11.20;19.20;;;;;;5040476;28;22033;-78
2023/04/05 11:07:13;;;;;;;6.70;4.47;;;11.30;17.80;;;;;;5044234;28;20423;-74
2023/04/05 11:10:02;;;;;;;7.90;4.40;;;11.50;17.90;;;;;;5040059;28;20509;-74
2023/04/05 11:13:07;;;;;;;6.63;3.83;;;11.60;19.20;;;;;;5042273;28;20445;-73
2023/04/05 11:16:08;;;;;;;6.30;3.93;;;11.60;17.30;;;;;;5045910;28;20482;-73
2023/04/05 11:18:54;;;;;;;8.50;4.27;;;11.30;16.90;;;;;;5042435;28;20432;-74
2023/04/05 11:21:40;;;;;;;6.40;4.30;;;11.00;19.00;;;;;;5045736;28;20483;-77
2023/04/05 11:24:50;;;;;;;5.63;3.90;;;11.20;18.90;;;;;;5037960;28;20458;-74
2023/04/05 11:27:36;;;;;;;8.37;5.20;;;11.40;16.40;;;;;;5046899;28;20438;-74
2023/04/05 11:30:50;;;;;;;7.63;4.10;;;11.50;16.50;;;;;;5036784;28;20449;-74
2023/04/05 11:33:54;;;;;;;5.50;3.90;;;11.80;18.40;;;;;;5043711;28;20443;-75
2023/04/05 11:36:44;;;;;;;7.07;4.30;;;12.20;17.80;;;;;;5040689;28;20441;-74
2023/04/05 11:39:30;;;;;;;6.13;4.03;;;12.10;15.20;;;;;;5034027;28;20454;-76
2023/04/05 11:42:17;;;;;;;6.47;5.17;;;11.80;15.30;;;;;;5045402;28;21083;-74
2023/04/05 11:45:03;;;;;;;9.37;4.40;;;12.00;15.90;;;;;;5037982;28;20516;-75
2023/04/05 11:47:50;;;;;;;6.13;4.57;;;12.30;16.90;;;;;;5045794;28;21088;-74
2023/04/05 11:50:36;;;;;;;7.40;4.23;;;12.40;16.10;;;;;;5043389;28;20449;-73
2023/04/05 11:53:22;;;;;;;9.53;4.27;;;12.50;16.80;;;;;;5039976;28;20562;-72
2023/04/05 11:56:11;;;;;;;7.73;4.27;;;12.70;16.60;;;;;;5037646;28;21060;-72
2023/04/05 11:58:59;;;;;;;9.20;4.53;;;12.80;17.70;;;;;;5040413;28;20543;-73
2023/04/05 12:01:45;;;;;;;8.53;4.77;;;13.00;15.30;;;;;;5040474;28;20516;-72
2023/04/05 12:04:32;;;;;;;5.37;4.27;;;12.90;14.90;;;;;;5041540;28;20802;-74
2023/04/05 12:07:19;;;;;;;6.90;4.63;;;13.00;15.00;;;;;;5046308;28;20933;-72
2023/04/05 12:10:10;;;;;;;9.20;4.77;;;12.90;15.40;;;;;;5046442;28;20445;-72
2023/04/05 12:12:56;;;;;;;5.97;4.30;;;13.00;17.40;;;;;;5049188;28;20433;-73
2023/04/05 12:15:42;;;;;;;9.07;4.20;;;13.40;18.30;;;;;;5045092;28;20501;-76
2023/04/05 12:18:30;;;;;;;7.23;4.73;;;12.80;14.10;;;;;;5038094;28;20559;-73
2023/04/05 12:21:17;;;;;;;8.87;4.93;;;12.70;16.10;;;;;;5043333;28;20552;-74
2023/04/05 12:24:02;;;;;;;6.50;4.60;;;12.70;15.20;;;;;;5042065;28;20425;-72
2023/04/05 12:26:48;;;;;;;9.97;3.97;;;12.80;14.70;;;;;;5042801;28;20805;-72
2023/04/05 12:29:34;;;;;;;6.07;4.43;;;13.00;16.00;;;;;;5040366;28;20505;-73
2023/04/05 12:32:19;;;;;;;6.40;4.90;;;12.80;13.90;;;;;;5042018;28;20489;-72
2023/04/05 12:35:11;;;;;;;9.83;4.33;;;12.40;14.50;;;;;;5039663;28;20449;-72
2023/04/05 12:38:00;;;;;;;5.57;4.27;;;12.70;16.70;;;;;;5039890;28;20533;-72
2023/04/05 12:40:46;;;;;;;13.43;5.07;;;13.20;15.70;;;;;;5039045;28;20450;-73
2023/04/05 12:43:38;;;;;;;5.93;4.23;;;13.40;13.20;;;;;;5038016;28;20426;-72
2023/04/05 12:46:39;;;;;;;6.23;4.50;;;13.60;14.10;;;;;;5041040;28;21242;-72
2023/04/05 12:49:28;;;;;;;11.17;4.13;;;13.60;14.20;;;;;;5044697;28;20470;-72
2023/04/05 12:52:19;;;;;;;7.60;4.13;;;13.70;14.40;;;;;;5043674;28;20487;-75
2023/04/05 12:55:16;;;;;;;6.00;4.10;;;14.00;13.40;;;;;;5045198;28;20509;-71
2023/04/05 12:58:02;;;;;;;9.20;4.80;;;13.90;12.80;;;;;;5043138;28;20580;-72
2023/04/05 13:00:48;;;;;;;7.40;4.13;;;13.80;12.80;;;;;;5045952;28;20442;-71
2023/04/05 13:03:34;;;;;;;6.97;4.27;;;13.70;12.50;;;;;;5044940;28;20529;-71
2023/04/05 13:06:20;;;;;;;6.77;4.60;;;13.90;13.90;;;;;;5042872;28;20479;-72
2023/04/05 13:09:06;;;;;;;6.57;4.60;;;14.00;12.70;;;;;;5047256;28;21024;-73
2023/04/05 13:11:53;;;;;;;6.73;3.80;;;14.20;12.00;;;;;;5041105;28;20424;-73
2023/04/05 13:14:39;;;;;;;8.07;5.10;;;14.40;13.20;;;;;;5047258;28;20489;-73
2023/04/05 13:17:24;;;;;;;7.00;4.97;;;14.50;12.10;;;;;;5042846;28;20465;-73
2023/04/05 13:20:10;;;;;;;5.60;4.23;;;14.40;11.80;;;;;;5042340;28;20536;-73
2023/04/05 13:22:56;;;;;;;6.03;5.20;;;14.70;13.60;;;;;;5050488;28;20490;-73
2023/04/05 13:25:44;;;;;;;11.70;6.30;;;14.70;11.90;;;;;;5043257;28;20974;-73
2023/04/05 13:28:33;;;;;;;10.57;5.13;;;14.60;11.40;;;;;;5040434;28;20455;-73
2023/04/05 13:31:18;;;;;;;7.00;4.80;;;14.60;11.00;;;;;;5044069;28;20446;-73
2023/04/05 13:34:04;;;;;;;6.20;4.20;;;15.00;10.80;;;;;;5050753;28;21010;-73
2023/04/05 13:36:50;;;;;;;9.17;4.90;;;15.30;11.10;;;;;;5041714;28;20796;-73
2023/04/05 13:39:36;;;;;;;4.90;4.07;;;15.60;11.30;;;;;;5042104;28;20498;-73
2023/04/05 13:42:22;;;;;;;5.47;3.90;;;15.50;11.20;;;;;;5048800;28;20534;-73
2023/04/05 13:45:10;;;;;;;7.13;4.57;;;15.70;9.60;;;;;;5043819;28;20541;-73
2023/04/05 13:47:56;;;;;;;8.00;3.97;;;15.70;9.20;;;;;;5039098;28;20430;-73
2023/04/05 13:50:42;;;;;;;5.70;4.00;;;14.60;8.80;;;;;;5039921;28;20450;-74
2023/04/05 13:53:27;;;;;;;6.57;4.70;;;14.50;10.40;;;;;;5045632;28;20803;-73
2023/04/05 13:56:13;;;;;;;4.77;3.93;;;14.90;10.70;;;;;;5041580;28;20475;-73
2023/04/05 13:58:59;;;;;;;8.00;3.97;;;15.10;10.90;;;;;;5041183;28;20436;-74
2023/04/05 14:01:46;;;;;;;6.60;3.70;;;15.50;11.20;;;;;;5041283;28;20470;-74
2023/04/05 14:04:32;;;;;;;4.90;3.60;;;15.90;10.20;;;;;;5044756;28;20436;-73
2023/04/05 14:07:18;;;;;;;5.27;4.50;;;15.80;8.60;;;;;;5047681;28;20437;-74
2023/04/05 14:10:05;;;;;;;8.40;4.20;;;15.80;9.90;;;;;;5038319;28;20475;-73
2023/04/05 14:12:50;;;;;;;6.97;4.33;;;16.10;10.50;;;;;;5041746;28;20901;-73
2023/04/05 14:15:36;;;;;;;4.37;3.90;;;16.00;8.60;;;;;;5056827;28;20457;-73
2023/04/05 14:18:25;;;;;;;7.13;5.30;;;15.80;8.40;;;;;;5038348;28;20466;-73
2023/04/05 14:21:10;;;;;;;6.03;4.20;;;15.10;8.60;;;;;;5041744;28;20585;-73
2023/04/05 14:24:01;;;;;;;4.83;4.33;;;15.30;9.40;;;;;;5044862;28;20458;-72
2023/04/05 14:26:48;;;;;;;6.83;4.03;;;15.30;9.60;;;;;;5041667;28;20459;-73
2023/04/05 14:29:34;;;;;;;5.30;4.40;;;14.90;10.10;;;;;;5045423;28;20462;-72
2023/04/05 14:32:21;;;;;;;5.80;4.37;;;15.00;9.60;;;;;;5036325;28;20778;-74
2023/04/05 14:35:09;;;;;;;6.67;4.00;;;15.20;9.90;;;;;;5050374;22;20558;-88
2023/04/05 14:37:55;;;;;;;11.07;4.60;;;15.70;9.80;;;;;;5065431;28;20454;-88
2023/04/05 14:40:41;;;;;;;8.77;4.23;;;15.90;8.80;;;;;;5067404;28;20444;-88